sensor_id;sensor_type;location;lat;lon;timestamp;P1;durP1;ratioP1;P2;durP2;ratioP2
8401;SDS011;4238;48.404;9.498;2023-07-31T04:01:28;2.53;;;2.10;;
8401;SDS011;4238;48.404;9.498;2023-07-31T04:03:55;2.57;;;2.30;;
8401;SDS011;4238;48.404;9.498;2023-07-31T04:06:22;2.77;;;2.20;;
8401;SDS011;4238;48.404;9.498;2023-07-31T04:08:49;4.00;;;2.50;;
8401;SDS011;4238;48.404;9.498;2023-07-31T04:11:15;2.80;;;2.27;;
8401;SDS011;4238;48.404;9.498;2023-07-31T04:13:42;2.90;;;2.00;;
8401;SDS011;4238;48.404;9.498;2023-07-31T04:16:09;2.17;;;2.07;;
8401;SDS011;4238;48.404;9.498;2023-07-31T04:18:37;3.27;;;2.27;;
8401;SDS011;4238;48.404;9.498;2023-07-31T04:21:04;4.43;;;2.67;;
8401;SDS011;4238;48.404;9.498;2023-07-31T04:23:31;2.20;;;2.10;;
8401;SDS011;4238;48.404;9.498;2023-07-31T04:25:58;3.00;;;2.30;;
8401;SDS011;4238;48.404;9.498;2023-07-31T04:28:25;3.07;;;2.40;;
8401;SDS011;4238;48.404;9.498;2023-07-31T04:30:52;2.53;;;2.33;;
8401;SDS011;4238;48.404;9.498;2023-07-31T04:33:19;2.70;;;2.50;;
8401;SDS011;4238;48.404;9.498;2023-07-31T04:35:49;2.53;;;2.33;;
8401;SDS011;4238;48.404;9.498;2023-07-31T04:38:17;3.83;;;2.60;;
8401;SDS011;4238;48.404;9.498;2023-07-31T04:40:44;3.63;;;2.50;;
8401;SDS011;4238;48.404;9.498;2023-07-31T04:43:12;2.90;;;2.70;;
8401;SDS011;4238;48.404;9.498;2023-07-31T04:45:41;3.60;;;3.20;;
8401;SDS011;4238;48.404;9.498;2023-07-31T04:48:09;4.30;;;3.50;;
8401;SDS011;4238;48.404;9.498;2023-07-31T04:50:35;4.90;;;3.80;;
8401;SDS011;4238;48.404;9.498;2023-07-31T04:53:04;4.00;;;3.60;;
8401;SDS011;4238;48.404;9.498;2023-07-31T04:55:30;3.60;;;3.30;;
8401;SDS011;4238;48.404;9.498;2023-07-31T04:57:58;4.57;;;3.17;;
8401;SDS011;4238;48.404;9.498;2023-07-31T05:00:25;4.43;;;3.70;;
8401;SDS011;4238;48.404;9.498;2023-07-31T05:02:52;3.70;;;3.40;;
8401;SDS011;4238;48.404;9.498;2023-07-31T05:05:19;3.58;;;3.10;;
8401;SDS011;4238;48.404;9.498;2023-07-31T05:07:45;3.75;;;3.35;;
8401;SDS011;4238;48.404;9.498;2023-07-31T05:10:14;3.47;;;3.07;;
8401;SDS011;4238;48.404;9.498;2023-07-31T05:12:40;3.83;;;3.47;;
8401;SDS011;4238;48.404;9.498;2023-07-31T05:15:08;3.78;;;3.42;;
8401;SDS011;4238;48.404;9.498;2023-07-31T05:17:35;3.30;;;3.03;;
8401;SDS011;4238;48.404;9.498;2023-07-31T05:20:02;4.13;;;3.73;;
8401;SDS011;4238;48.404;9.498;2023-07-31T05:22:29;3.72;;;3.38;;
8401;SDS011;4238;48.404;9.498;2023-07-31T05:24:56;5.40;;;3.63;;
8401;SDS011;4238;48.404;9.498;2023-07-31T05:27:24;3.88;;;3.47;;
8401;SDS011;4238;48.404;9.498;2023-07-31T05:29:51;4.40;;;3.83;;
8401;SDS011;4238;48.404;9.498;2023-07-31T05:32:18;3.88;;;3.55;;
8401;SDS011;4238;48.404;9.498;2023-07-31T05:34:45;4.60;;;3.80;;
8401;SDS011;4238;48.404;9.498;2023-07-31T05:37:11;3.60;;;3.33;;
8401;SDS011;4238;48.404;9.498;2023-07-31T05:39:39;4.13;;;3.60;;
8401;SDS011;4238;48.404;9.498;2023-07-31T05:42:06;4.45;;;3.13;;
8401;SDS011;4238;48.404;9.498;2023-07-31T05:44:34;3.60;;;3.30;;
8401;SDS011;4238;48.404;9.498;2023-07-31T05:47:01;4.18;;;3.88;;
8401;SDS011;4238;48.404;9.498;2023-07-31T05:49:28;3.78;;;3.47;;
8401;SDS011;4238;48.404;9.498;2023-07-31T05:51:55;5.50;;;4.03;;
8401;SDS011;4238;48.404;9.498;2023-07-31T05:54:21;5.60;;;4.18;;
8401;SDS011;4238;48.404;9.498;2023-07-31T05:56:48;3.65;;;3.35;;
8401;SDS011;4238;48.404;9.498;2023-07-31T05:59:15;3.50;;;3.20;;
8401;SDS011;4238;48.404;9.498;2023-07-31T06:01:44;5.13;;;3.28;;
8401;SDS011;4238;48.404;9.498;2023-07-31T06:04:11;3.78;;;2.92;;
8401;SDS011;4238;48.404;9.498;2023-07-31T06:06:37;3.47;;;3.08;;
8401;SDS011;4238;48.404;9.498;2023-07-31T06:09:04;3.67;;;2.97;;
8401;SDS011;4238;48.404;9.498;2023-07-31T06:11:32;2.75;;;2.55;;
8401;SDS011;4238;48.404;9.498;2023-07-31T06:13:58;6.28;;;2.92;;
8401;SDS011;4238;48.404;9.498;2023-07-31T06:16:25;3.08;;;2.75;;
8401;SDS011;4238;48.404;9.498;2023-07-31T06:18:53;2.83;;;2.63;;
8401;SDS011;4238;48.404;9.498;2023-07-31T06:21:20;4.90;;;3.17;;
8401;SDS011;4238;48.404;9.498;2023-07-31T06:23:47;4.00;;;2.63;;
8401;SDS011;4238;48.404;9.498;2023-07-31T06:26:14;4.88;;;2.70;;
8401;SDS011;4238;48.404;9.498;2023-07-31T06:28:41;3.55;;;2.35;;
8401;SDS011;4238;48.404;9.498;2023-07-31T06:31:08;3.15;;;2.42;;
8401;SDS011;4238;48.404;9.498;2023-07-31T06:33:35;3.75;;;2.67;;
8401;SDS011;4238;48.404;9.498;2023-07-31T06:36:03;3.35;;;2.75;;
8401;SDS011;4238;48.404;9.498;2023-07-31T06:38:30;2.35;;;2.15;;
8401;SDS011;4238;48.404;9.498;2023-07-31T06:40:58;2.30;;;1.90;;
8401;SDS011;4238;48.404;9.498;2023-07-31T06:43:24;4.00;;;2.55;;
8401;SDS011;4238;48.404;9.498;2023-07-31T06:45:51;2.78;;;2.38;;
8401;SDS011;4238;48.404;9.498;2023-07-31T06:48:18;2.90;;;2.38;;
8401;SDS011;4238;48.404;9.498;2023-07-31T06:50:45;4.18;;;2.63;;
8401;SDS011;4238;48.404;9.498;2023-07-31T06:53:13;4.10;;;2.47;;
8401;SDS011;4238;48.404;9.498;2023-07-31T06:55:40;2.55;;;2.40;;
8401;SDS011;4238;48.404;9.498;2023-07-31T06:58:07;3.13;;;2.30;;
8401;SDS011;4238;48.404;9.498;2023-07-31T07:00:34;4.18;;;2.67;;
8401;SDS011;4238;48.404;9.498;2023-07-31T07:03:01;2.17;;;2.08;;
8401;SDS011;4238;48.404;9.498;2023-07-31T07:05:27;2.22;;;2.03;;
8401;SDS011;4238;48.404;9.498;2023-07-31T07:07:54;2.10;;;2.00;;
8401;SDS011;4238;48.404;9.498;2023-07-31T07:10:22;2.38;;;2.20;;
8401;SDS011;4238;48.404;9.498;2023-07-31T07:12:49;2.80;;;2.47;;
8401;SDS011;4238;48.404;9.498;2023-07-31T07:15:16;2.58;;;2.38;;
8401;SDS011;4238;48.404;9.498;2023-07-31T07:17:43;3.65;;;2.30;;
8401;SDS011;4238;48.404;9.498;2023-07-31T07:20:10;2.95;;;2.38;;
8401;SDS011;4238;48.404;9.498;2023-07-31T07:22:37;2.55;;;1.85;;
8401;SDS011;4238;48.404;9.498;2023-07-31T07:25:04;2.80;;;2.42;;
8401;SDS011;4238;48.404;9.498;2023-07-31T07:27:33;2.70;;;2.35;;
8401;SDS011;4238;48.404;9.498;2023-07-31T07:30:00;3.13;;;2.65;;
8401;SDS011;4238;48.404;9.498;2023-07-31T07:32:27;4.88;;;2.95;;
8401;SDS011;4238;48.404;9.498;2023-07-31T07:34:54;4.30;;;2.30;;
8401;SDS011;4238;48.404;9.498;2023-07-31T07:37:22;2.60;;;2.40;;
8401;SDS011;4238;48.404;9.498;2023-07-31T07:39:49;3.25;;;2.58;;
8401;SDS011;4238;48.404;9.498;2023-07-31T07:42:16;2.30;;;2.20;;
8401;SDS011;4238;48.404;9.498;2023-07-31T07:44:44;5.00;;;2.90;;
8401;SDS011;4238;48.404;9.498;2023-07-31T07:47:11;3.65;;;2.50;;
8401;SDS011;4238;48.404;9.498;2023-07-31T07:49:38;3.72;;;2.28;;
8401;SDS011;4238;48.404;9.498;2023-07-31T07:52:05;5.00;;;2.60;;
8401;SDS011;4238;48.404;9.498;2023-07-31T07:54:32;4.18;;;2.92;;
8401;SDS011;4238;48.404;9.498;2023-07-31T07:56:59;4.38;;;2.50;;
8401;SDS011;4238;48.404;9.498;2023-07-31T07:59:26;3.97;;;2.60;;
8401;SDS011;4238;48.404;9.498;2023-07-31T08:01:54;3.05;;;2.35;;
8401;SDS011;4238;48.404;9.498;2023-07-31T08:04:22;3.78;;;2.90;;
8401;SDS011;4238;48.404;9.498;2023-07-31T08:06:49;2.45;;;2.08;;
8401;SDS011;4238;48.404;9.498;2023-07-31T08:09:16;4.47;;;2.40;;
8401;SDS011;4238;48.404;9.498;2023-07-31T08:11:43;4.30;;;2.53;;
8401;SDS011;4238;48.404;9.498;2023-07-31T08:14:09;4.22;;;2.38;;
8401;SDS011;4238;48.404;9.498;2023-07-31T08:16:36;3.78;;;2.63;;
8401;SDS011;4238;48.404;9.498;2023-07-31T08:19:04;4.20;;;2.95;;
8401;SDS011;4238;48.404;9.498;2023-07-31T08:21:31;2.90;;;2.55;;
8401;SDS011;4238;48.404;9.498;2023-07-31T08:23:58;6.50;;;2.30;;
8401;SDS011;4238;48.404;9.498;2023-07-31T08:26:25;2.92;;;2.63;;
8401;SDS011;4238;48.404;9.498;2023-07-31T08:28:52;4.78;;;3.00;;
8401;SDS011;4238;48.404;9.498;2023-07-31T08:31:19;3.78;;;2.60;;
8401;SDS011;4238;48.404;9.498;2023-07-31T08:33:46;3.97;;;2.70;;
8401;SDS011;4238;48.404;9.498;2023-07-31T08:36:14;3.85;;;2.72;;
8401;SDS011;4238;48.404;9.498;2023-07-31T08:38:41;4.78;;;2.85;;
8401;SDS011;4238;48.404;9.498;2023-07-31T08:41:08;2.78;;;2.53;;
8401;SDS011;4238;48.404;9.498;2023-07-31T08:43:34;2.70;;;2.45;;
8401;SDS011;4238;48.404;9.498;2023-07-31T08:46:02;5.30;;;3.00;;
8401;SDS011;4238;48.404;9.498;2023-07-31T08:48:29;3.55;;;2.80;;
8401;SDS011;4238;48.404;9.498;2023-07-31T08:50:58;2.83;;;2.55;;
8401;SDS011;4238;48.404;9.498;2023-07-31T08:53:26;3.75;;;2.70;;
8401;SDS011;4238;48.404;9.498;2023-07-31T08:55:53;2.90;;;2.70;;
8401;SDS011;4238;48.404;9.498;2023-07-31T08:58:20;2.78;;;2.58;;
8401;SDS011;4238;48.404;9.498;2023-07-31T09:00:47;4.13;;;2.80;;
8401;SDS011;4238;48.404;9.498;2023-07-31T09:03:16;3.38;;;2.53;;
8401;SDS011;4238;48.404;9.498;2023-07-31T09:05:45;4.97;;;3.05;;
8401;SDS011;4238;48.404;9.498;2023-07-31T09:08:13;2.60;;;2.38;;
8401;SDS011;4238;48.404;9.498;2023-07-31T09:10:45;3.47;;;2.80;;
8401;SDS011;4238;48.404;9.498;2023-07-31T09:13:13;2.90;;;2.70;;
8401;SDS011;4238;48.404;9.498;2023-07-31T09:15:40;4.30;;;3.00;;
8401;SDS011;4238;48.404;9.498;2023-07-31T09:18:09;4.82;;;3.28;;
8401;SDS011;4238;48.404;9.498;2023-07-31T09:20:37;3.35;;;2.78;;
8401;SDS011;4238;48.404;9.498;2023-07-31T09:23:07;3.17;;;2.67;;
8401;SDS011;4238;48.404;9.498;2023-07-31T09:25:35;2.92;;;2.72;;
8401;SDS011;4238;48.404;9.498;2023-07-31T09:28:04;2.88;;;2.42;;
8401;SDS011;4238;48.404;9.498;2023-07-31T09:30:43;3.00;;;2.70;;
8401;SDS011;4238;48.404;9.498;2023-07-31T09:33:12;2.55;;;2.35;;
8401;SDS011;4238;48.404;9.498;2023-07-31T09:35:39;3.45;;;2.78;;
8401;SDS011;4238;48.404;9.498;2023-07-31T09:38:08;3.83;;;2.83;;
8401;SDS011;4238;48.404;9.498;2023-07-31T09:40:38;3.55;;;2.60;;
8401;SDS011;4238;48.404;9.498;2023-07-31T09:43:09;2.85;;;2.28;;
8401;SDS011;4238;48.404;9.498;2023-07-31T09:45:37;3.67;;;2.75;;
8401;SDS011;4238;48.404;9.498;2023-07-31T09:48:06;3.63;;;2.75;;
8401;SDS011;4238;48.404;9.498;2023-07-31T09:50:34;3.78;;;2.80;;
8401;SDS011;4238;48.404;9.498;2023-07-31T09:53:04;3.63;;;2.78;;
8401;SDS011;4238;48.404;9.498;2023-07-31T09:55:31;4.03;;;2.92;;
8401;SDS011;4238;48.404;9.498;2023-07-31T09:57:58;4.82;;;3.08;;
8401;SDS011;4238;48.404;9.498;2023-07-31T10:00:30;4.03;;;3.08;;
8401;SDS011;4238;48.404;9.498;2023-07-31T10:02:58;2.75;;;2.55;;
8401;SDS011;4238;48.404;9.498;2023-07-31T10:05:27;3.47;;;2.70;;
8401;SDS011;4238;48.404;9.498;2023-07-31T10:07:57;4.85;;;2.67;;
8401;SDS011;4238;48.404;9.498;2023-07-31T10:10:24;2.72;;;2.53;;
8401;SDS011;4238;48.404;9.498;2023-07-31T10:12:52;2.78;;;2.58;;
8401;SDS011;4238;48.404;9.498;2023-07-31T10:15:20;3.38;;;2.22;;
8401;SDS011;4238;48.404;9.498;2023-07-31T10:17:49;2.85;;;2.50;;
8401;SDS011;4238;48.404;9.498;2023-07-31T10:20:16;2.95;;;2.40;;
8401;SDS011;4238;48.404;9.498;2023-07-31T10:22:43;2.97;;;2.45;;
8401;SDS011;4238;48.404;9.498;2023-07-31T10:25:12;4.60;;;2.53;;
8401;SDS011;4238;48.404;9.498;2023-07-31T10:27:39;2.85;;;2.47;;
8401;SDS011;4238;48.404;9.498;2023-07-31T10:30:08;4.40;;;2.65;;
8401;SDS011;4238;48.404;9.498;2023-07-31T10:32:38;3.40;;;2.63;;
8401;SDS011;4238;48.404;9.498;2023-07-31T10:35:08;3.47;;;2.55;;
8401;SDS011;4238;48.404;9.498;2023-07-31T10:37:36;3.60;;;2.42;;
8401;SDS011;4238;48.404;9.498;2023-07-31T10:40:04;4.93;;;2.75;;
8401;SDS011;4238;48.404;9.498;2023-07-31T10:42:32;3.65;;;3.00;;
8401;SDS011;4238;48.404;9.498;2023-07-31T10:45:02;3.90;;;2.30;;
8401;SDS011;4238;48.404;9.498;2023-07-31T10:47:30;2.50;;;2.30;;
8401;SDS011;4238;48.404;9.498;2023-07-31T10:50:13;3.42;;;2.35;;
8401;SDS011;4238;48.404;9.498;2023-07-31T10:52:45;2.90;;;2.63;;
8401;SDS011;4238;48.404;9.498;2023-07-31T10:57:57;4.30;;;2.58;;
8401;SDS011;4238;48.404;9.498;2023-07-31T11:00:31;3.25;;;2.75;;
8401;SDS011;4238;48.404;9.498;2023-07-31T11:03:00;3.25;;;2.60;;
8401;SDS011;4238;48.404;9.498;2023-07-31T11:05:48;3.13;;;2.83;;
8401;SDS011;4238;48.404;9.498;2023-07-31T11:08:20;2.83;;;2.55;;
8401;SDS011;4238;48.404;9.498;2023-07-31T11:10:49;3.13;;;2.47;;
8401;SDS011;4238;48.404;9.498;2023-07-31T11:13:19;3.22;;;2.50;;
8401;SDS011;4238;48.404;9.498;2023-07-31T11:15:45;3.20;;;2.72;;
8401;SDS011;4238;48.404;9.498;2023-07-31T11:18:12;3.58;;;2.75;;
8401;SDS011;4238;48.404;9.498;2023-07-31T11:20:40;3.50;;;2.90;;
8401;SDS011;4238;48.404;9.498;2023-07-31T11:23:09;3.33;;;3.03;;
8401;SDS011;4238;48.404;9.498;2023-07-31T11:25:37;3.47;;;3.15;;
8401;SDS011;4238;48.404;9.498;2023-07-31T11:28:08;2.83;;;2.55;;
8401;SDS011;4238;48.404;9.498;2023-07-31T11:30:36;3.72;;;2.78;;
8401;SDS011;4238;48.404;9.498;2023-07-31T11:33:04;4.00;;;3.00;;
8401;SDS011;4238;48.404;9.498;2023-07-31T11:35:32;3.00;;;2.60;;
8401;SDS011;4238;48.404;9.498;2023-07-31T11:38:00;3.97;;;2.58;;
8401;SDS011;4238;48.404;9.498;2023-07-31T11:40:29;3.25;;;2.95;;
8401;SDS011;4238;48.404;9.498;2023-07-31T11:42:56;3.33;;;3.00;;
8401;SDS011;4238;48.404;9.498;2023-07-31T11:45:24;3.85;;;2.80;;
8401;SDS011;4238;48.404;9.498;2023-07-31T11:47:53;4.78;;;2.85;;
8401;SDS011;4238;48.404;9.498;2023-07-31T11:50:21;2.72;;;2.45;;
8401;SDS011;4238;48.404;9.498;2023-07-31T11:52:50;2.75;;;2.55;;
8401;SDS011;4238;48.404;9.498;2023-07-31T11:55:18;6.30;;;3.10;;
8401;SDS011;4238;48.404;9.498;2023-07-31T11:57:47;3.08;;;2.53;;
8401;SDS011;4238;48.404;9.498;2023-07-31T12:00:15;3.03;;;2.72;;
8401;SDS011;4238;48.404;9.498;2023-07-31T12:02:42;4.40;;;3.20;;
8401;SDS011;4238;48.404;9.498;2023-07-31T12:05:10;3.15;;;2.78;;
8401;SDS011;4238;48.404;9.498;2023-07-31T12:07:45;3.50;;;3.20;;
8401;SDS011;4238;48.404;9.498;2023-07-31T12:10:22;3.55;;;3.22;;
8401;SDS011;4238;48.404;9.498;2023-07-31T12:13:01;3.35;;;3.03;;
8401;SDS011;4238;48.404;9.498;2023-07-31T12:15:32;3.50;;;3.20;;
8401;SDS011;4238;48.404;9.498;2023-07-31T12:18:00;4.65;;;2.70;;
8401;SDS011;4238;48.404;9.498;2023-07-31T12:20:31;3.25;;;3.03;;
8401;SDS011;4238;48.404;9.498;2023-07-31T12:22:58;4.78;;;3.20;;
8401;SDS011;4238;48.404;9.498;2023-07-31T12:25:29;3.00;;;2.70;;
8401;SDS011;4238;48.404;9.498;2023-07-31T12:28:05;3.30;;;2.97;;
8401;SDS011;4238;48.404;9.498;2023-07-31T12:30:36;3.90;;;3.38;;
8401;SDS011;4238;48.404;9.498;2023-07-31T12:33:04;4.15;;;3.00;;
8401;SDS011;4238;48.404;9.498;2023-07-31T12:35:36;3.90;;;3.50;;
8401;SDS011;4238;48.404;9.498;2023-07-31T12:38:03;3.15;;;2.85;;
8401;SDS011;4238;48.404;9.498;2023-07-31T12:40:30;3.25;;;2.92;;
8401;SDS011;4238;48.404;9.498;2023-07-31T12:42:57;3.20;;;2.90;;
8401;SDS011;4238;48.404;9.498;2023-07-31T12:45:28;3.67;;;2.78;;
8401;SDS011;4238;48.404;9.498;2023-07-31T12:47:55;2.97;;;2.63;;
8401;SDS011;4238;48.404;9.498;2023-07-31T12:50:22;3.47;;;2.97;;
8401;SDS011;4238;48.404;9.498;2023-07-31T12:52:49;3.03;;;2.75;;
8401;SDS011;4238;48.404;9.498;2023-07-31T12:55:16;4.63;;;3.30;;
8401;SDS011;4238;48.404;9.498;2023-07-31T12:57:43;3.63;;;3.10;;
8401;SDS011;4238;48.404;9.498;2023-07-31T13:00:10;2.92;;;2.67;;
8401;SDS011;4238;48.404;9.498;2023-07-31T13:02:40;4.72;;;3.00;;
8401;SDS011;4238;48.404;9.498;2023-07-31T13:05:07;3.22;;;2.90;;
8401;SDS011;4238;48.404;9.498;2023-07-31T13:07:34;3.58;;;3.28;;
8401;SDS011;4238;48.404;9.498;2023-07-31T13:10:01;3.25;;;2.95;;
8401;SDS011;4238;48.404;9.498;2023-07-31T13:12:28;2.75;;;2.55;;
8401;SDS011;4238;48.404;9.498;2023-07-31T13:14:55;3.63;;;2.95;;
8401;SDS011;4238;48.404;9.498;2023-07-31T13:17:22;3.83;;;2.85;;
8401;SDS011;4238;48.404;9.498;2023-07-31T13:19:50;4.45;;;2.85;;
8401;SDS011;4238;48.404;9.498;2023-07-31T13:22:17;2.95;;;2.65;;
8401;SDS011;4238;48.404;9.498;2023-07-31T13:24:44;3.33;;;3.00;;
8401;SDS011;4238;48.404;9.498;2023-07-31T13:27:11;3.17;;;2.88;;
8401;SDS011;4238;48.404;9.498;2023-07-31T13:29:37;3.17;;;2.90;;
8401;SDS011;4238;48.404;9.498;2023-07-31T13:32:04;5.60;;;3.45;;
8401;SDS011;4238;48.404;9.498;2023-07-31T13:34:31;3.88;;;3.25;;
8401;SDS011;4238;48.404;9.498;2023-07-31T13:37:00;3.63;;;3.00;;
8401;SDS011;4238;48.404;9.498;2023-07-31T13:39:26;5.45;;;3.38;;
8401;SDS011;4238;48.404;9.498;2023-07-31T13:41:53;3.15;;;2.92;;
8401;SDS011;4238;48.404;9.498;2023-07-31T13:44:20;2.67;;;2.47;;
8401;SDS011;4238;48.404;9.498;2023-07-31T13:46:47;3.53;;;2.92;;
8401;SDS011;4238;48.404;9.498;2023-07-31T13:49:14;3.47;;;3.13;;
8401;SDS011;4238;48.404;9.498;2023-07-31T13:51:41;3.05;;;2.85;;
8401;SDS011;4238;48.404;9.498;2023-07-31T13:54:09;3.53;;;3.20;;
8401;SDS011;4238;48.404;9.498;2023-07-31T13:56:36;4.30;;;3.20;;
8401;SDS011;4238;48.404;9.498;2023-07-31T13:59:04;3.10;;;2.83;;
8401;SDS011;4238;48.404;9.498;2023-07-31T14:01:31;4.60;;;3.13;;
8401;SDS011;4238;48.404;9.498;2023-07-31T14:03:58;3.40;;;2.97;;
8401;SDS011;4238;48.404;9.498;2023-07-31T14:06:25;3.10;;;2.80;;
8401;SDS011;4238;48.404;9.498;2023-07-31T14:08:51;4.50;;;3.58;;
8401;SDS011;4238;48.404;9.498;2023-07-31T14:11:20;3.63;;;3.15;;
8401;SDS011;4238;48.404;9.498;2023-07-31T14:13:46;5.32;;;3.80;;
8401;SDS011;4238;48.404;9.498;2023-07-31T14:16:13;3.45;;;2.92;;
8401;SDS011;4238;48.404;9.498;2023-07-31T14:18:40;3.60;;;3.30;;
8401;SDS011;4238;48.404;9.498;2023-07-31T14:21:07;4.05;;;3.65;;
8401;SDS011;4238;48.404;9.498;2023-07-31T14:23:34;4.18;;;3.20;;
8401;SDS011;4238;48.404;9.498;2023-07-31T14:26:01;3.97;;;3.50;;
8401;SDS011;4238;48.404;9.498;2023-07-31T14:28:29;3.38;;;3.08;;
8401;SDS011;4238;48.404;9.498;2023-07-31T14:30:56;3.65;;;3.35;;
8401;SDS011;4238;48.404;9.498;2023-07-31T14:33:24;4.72;;;3.60;;
8401;SDS011;4238;48.404;9.498;2023-07-31T14:35:51;5.22;;;3.92;;
8401;SDS011;4238;48.404;9.498;2023-07-31T14:38:18;3.92;;;3.22;;
8401;SDS011;4238;48.404;9.498;2023-07-31T14:40:44;3.55;;;3.25;;
8401;SDS011;4238;48.404;9.498;2023-07-31T14:43:11;4.00;;;3.60;;
8401;SDS011;4238;48.404;9.498;2023-07-31T14:45:40;3.80;;;3.50;;
8401;SDS011;4238;48.404;9.498;2023-07-31T14:48:07;3.88;;;3.33;;
8401;SDS011;4238;48.404;9.498;2023-07-31T14:50:34;4.75;;;3.35;;
8401;SDS011;4238;48.404;9.498;2023-07-31T14:53:01;3.63;;;3.33;;
8401;SDS011;4238;48.404;9.498;2023-07-31T14:55:27;4.70;;;3.58;;
8401;SDS011;4238;48.404;9.498;2023-07-31T14:57:54;3.47;;;3.17;;
8401;SDS011;4238;48.404;9.498;2023-07-31T15:00:21;4.93;;;3.45;;
8401;SDS011;4238;48.404;9.498;2023-07-31T15:02:50;4.32;;;3.45;;
8401;SDS011;4238;48.404;9.498;2023-07-31T15:05:17;3.58;;;3.28;;
8401;SDS011;4238;48.404;9.498;2023-07-31T15:07:44;4.55;;;3.55;;
8401;SDS011;4238;48.404;9.498;2023-07-31T15:10:11;5.25;;;3.28;;
8401;SDS011;4238;48.404;9.498;2023-07-31T15:12:39;3.58;;;3.25;;
8401;SDS011;4238;48.404;9.498;2023-07-31T15:15:06;5.07;;;3.55;;
8401;SDS011;4238;48.404;9.498;2023-07-31T15:17:34;4.35;;;3.22;;
8401;SDS011;4238;48.404;9.498;2023-07-31T15:20:02;3.45;;;2.95;;
8401;SDS011;4238;48.404;9.498;2023-07-31T15:22:30;5.45;;;3.45;;
8401;SDS011;4238;48.404;9.498;2023-07-31T15:24:57;5.05;;;3.15;;
8401;SDS011;4238;48.404;9.498;2023-07-31T15:27:24;7.25;;;3.60;;
8401;SDS011;4238;48.404;9.498;2023-07-31T15:29:50;5.10;;;3.63;;
8401;SDS011;4238;48.404;9.498;2023-07-31T15:32:17;4.82;;;3.50;;
8401;SDS011;4238;48.404;9.498;2023-07-31T15:34:44;3.60;;;3.30;;
8401;SDS011;4238;48.404;9.498;2023-07-31T15:37:13;3.40;;;3.10;;
8401;SDS011;4238;48.404;9.498;2023-07-31T15:39:39;4.75;;;3.53;;
8401;SDS011;4238;48.404;9.498;2023-07-31T15:42:06;4.00;;;3.40;;
8401;SDS011;4238;48.404;9.498;2023-07-31T15:44:34;3.95;;;3.30;;
8401;SDS011;4238;48.404;9.498;2023-07-31T15:47:01;3.35;;;3.05;;
8401;SDS011;4238;48.404;9.498;2023-07-31T15:49:27;5.30;;;3.60;;
8401;SDS011;4238;48.404;9.498;2023-07-31T15:51:54;3.67;;;2.83;;
8401;SDS011;4238;48.404;9.498;2023-07-31T15:54:23;3.47;;;3.17;;
8401;SDS011;4238;48.404;9.498;2023-07-31T15:56:50;3.78;;;3.38;;
8401;SDS011;4238;48.404;9.498;2023-07-31T15:59:17;3.85;;;3.03;;
8401;SDS011;4238;48.404;9.498;2023-07-31T16:01:44;3.58;;;3.22;;
8401;SDS011;4238;48.404;9.498;2023-07-31T16:04:11;5.13;;;2.95;;
8401;SDS011;4238;48.404;9.498;2023-07-31T16:06:37;4.38;;;3.08;;
8401;SDS011;4238;48.404;9.498;2023-07-31T16:09:04;4.95;;;3.33;;
8401;SDS011;4238;48.404;9.498;2023-07-31T16:11:32;3.63;;;3.30;;
8401;SDS011;4238;48.404;9.498;2023-07-31T16:13:59;4.35;;;3.30;;
8401;SDS011;4238;48.404;9.498;2023-07-31T16:16:27;3.47;;;3.17;;
8401;SDS011;4238;48.404;9.498;2023-07-31T16:18:54;4.60;;;2.75;;
8401;SDS011;4238;48.404;9.498;2023-07-31T16:21:21;3.60;;;3.30;;
8401;SDS011;4238;48.404;9.498;2023-07-31T16:23:47;3.30;;;3.00;;
8401;SDS011;4238;48.404;9.498;2023-07-31T16:26:14;3.63;;;3.30;;
8401;SDS011;4238;48.404;9.498;2023-07-31T16:28:43;4.90;;;3.35;;
8401;SDS011;4238;48.404;9.498;2023-07-31T16:31:09;5.07;;;3.65;;
8401;SDS011;4238;48.404;9.498;2023-07-31T16:33:36;3.35;;;3.08;;
8401;SDS011;4238;48.404;9.498;2023-07-31T16:36:03;3.75;;;3.35;;
8401;SDS011;4238;48.404;9.498;2023-07-31T16:38:30;4.72;;;2.80;;
8401;SDS011;4238;48.404;9.498;2023-07-31T16:40:58;4.75;;;3.40;;
8401;SDS011;4238;48.404;9.498;2023-07-31T16:43:24;3.75;;;3.05;;
8401;SDS011;4238;48.404;9.498;2023-07-31T16:45:55;6.10;;;3.40;;
8401;SDS011;4238;48.404;9.498;2023-07-31T16:48:22;3.95;;;2.92;;
8401;SDS011;4238;48.404;9.498;2023-07-31T16:50:49;7.63;;;3.60;;
8401;SDS011;4238;48.404;9.498;2023-07-31T16:53:16;5.70;;;3.30;;
8401;SDS011;4238;48.404;9.498;2023-07-31T16:55:43;4.55;;;4.00;;
8401;SDS011;4238;48.404;9.498;2023-07-31T16:58:09;5.40;;;3.08;;
8401;SDS011;4238;48.404;9.498;2023-07-31T17:00:36;4.35;;;3.35;;
8401;SDS011;4238;48.404;9.498;2023-07-31T17:03:04;3.30;;;3.00;;
8401;SDS011;4238;48.404;9.498;2023-07-31T17:05:31;4.05;;;3.25;;
8401;SDS011;4238;48.404;9.498;2023-07-31T17:07:58;4.60;;;3.42;;
8401;SDS011;4238;48.404;9.498;2023-07-31T17:10:25;3.28;;;2.97;;
8401;SDS011;4238;48.404;9.498;2023-07-31T17:12:52;3.55;;;3.03;;
8401;SDS011;4238;48.404;9.498;2023-07-31T17:15:19;5.10;;;3.65;;
8401;SDS011;4238;48.404;9.498;2023-07-31T17:17:45;4.18;;;2.95;;
8401;SDS011;4238;48.404;9.498;2023-07-31T17:20:13;3.80;;;3.42;;
8401;SDS011;4238;48.404;9.498;2023-07-31T17:22:40;3.70;;;3.40;;
8401;SDS011;4238;48.404;9.498;2023-07-31T17:25:09;3.70;;;3.20;;
8401;SDS011;4238;48.404;9.498;2023-07-31T17:27:36;3.97;;;3.25;;
8401;SDS011;4238;48.404;9.498;2023-07-31T17:30:04;3.35;;;3.05;;
8401;SDS011;4238;48.404;9.498;2023-07-31T17:32:31;5.00;;;3.25;;
8401;SDS011;4238;48.404;9.498;2023-07-31T17:34:58;3.25;;;2.88;;
8401;SDS011;4238;48.404;9.498;2023-07-31T17:37:26;3.75;;;3.00;;
8401;SDS011;4238;48.404;9.498;2023-07-31T17:39:53;4.03;;;3.22;;
8401;SDS011;4238;48.404;9.498;2023-07-31T17:42:20;3.63;;;3.33;;
8401;SDS011;4238;48.404;9.498;2023-07-31T17:44:47;4.53;;;3.15;;
8401;SDS011;4238;48.404;9.498;2023-07-31T17:47:13;4.10;;;3.75;;
8401;SDS011;4238;48.404;9.498;2023-07-31T17:49:40;6.78;;;3.63;;
8401;SDS011;4238;48.404;9.498;2023-07-31T17:52:07;4.35;;;3.22;;
8401;SDS011;4238;48.404;9.498;2023-07-31T17:54:36;3.88;;;3.58;;
8401;SDS011;4238;48.404;9.498;2023-07-31T17:57:03;3.38;;;3.08;;
8401;SDS011;4238;48.404;9.498;2023-07-31T17:59:30;3.88;;;3.35;;
8401;SDS011;4238;48.404;9.498;2023-07-31T18:01:57;4.80;;;3.58;;
8401;SDS011;4238;48.404;9.498;2023-07-31T18:04:24;4.55;;;3.70;;
8401;SDS011;4238;48.404;9.498;2023-07-31T18:06:51;3.33;;;3.13;;
8401;SDS011;4238;48.404;9.498;2023-07-31T18:09:18;6.80;;;3.60;;
8401;SDS011;4238;48.404;9.498;2023-07-31T18:11:46;4.38;;;3.30;;
8401;SDS011;4238;48.404;9.498;2023-07-31T18:14:13;4.30;;;3.70;;
8401;SDS011;4238;48.404;9.498;2023-07-31T18:16:40;3.65;;;3.35;;
8401;SDS011;4238;48.404;9.498;2023-07-31T18:19:07;5.78;;;3.40;;
8401;SDS011;4238;48.404;9.498;2023-07-31T18:21:35;4.53;;;3.38;;
8401;SDS011;4238;48.404;9.498;2023-07-31T18:24:02;3.35;;;3.05;;
8401;SDS011;4238;48.404;9.498;2023-07-31T18:26:29;5.20;;;3.45;;
8401;SDS011;4238;48.404;9.498;2023-07-31T18:28:57;5.38;;;3.70;;
8401;SDS011;4238;48.404;9.498;2023-07-31T18:31:24;3.63;;;3.13;;
8401;SDS011;4238;48.404;9.498;2023-07-31T18:33:51;4.15;;;3.53;;
8401;SDS011;4238;48.404;9.498;2023-07-31T18:36:18;4.40;;;3.45;;
8401;SDS011;4238;48.404;9.498;2023-07-31T18:38:45;5.38;;;3.53;;
8401;SDS011;4238;48.404;9.498;2023-07-31T18:41:12;5.88;;;4.30;;
8401;SDS011;4238;48.404;9.498;2023-07-31T18:43:39;3.90;;;3.60;;
8401;SDS011;4238;48.404;9.498;2023-07-31T18:46:07;3.97;;;3.28;;
8401;SDS011;4238;48.404;9.498;2023-07-31T18:48:34;3.63;;;3.33;;
8401;SDS011;4238;48.404;9.498;2023-07-31T18:51:01;3.47;;;3.17;;
8401;SDS011;4238;48.404;9.498;2023-07-31T18:53:27;4.32;;;3.50;;
8401;SDS011;4238;48.404;9.498;2023-07-31T18:55:54;4.30;;;3.55;;
8401;SDS011;4238;48.404;9.498;2023-07-31T18:58:21;5.13;;;3.70;;
8401;SDS011;4238;48.404;9.498;2023-07-31T19:00:48;3.70;;;3.40;;
8401;SDS011;4238;48.404;9.498;2023-07-31T19:03:16;5.10;;;3.70;;
8401;SDS011;4238;48.404;9.498;2023-07-31T19:05:43;5.38;;;3.40;;
8401;SDS011;4238;48.404;9.498;2023-07-31T19:08:10;4.00;;;3.58;;
8401;SDS011;4238;48.404;9.498;2023-07-31T19:10:37;4.22;;;3.42;;
8401;SDS011;4238;48.404;9.498;2023-07-31T19:13:04;3.88;;;3.47;;
8401;SDS011;4238;48.404;9.498;2023-07-31T19:15:32;4.43;;;3.65;;
8401;SDS011;4238;48.404;9.498;2023-07-31T19:17:59;3.85;;;3.53;;
8401;SDS011;4238;48.404;9.498;2023-07-31T19:20:27;3.60;;;3.13;;